CYWE

Wekweeti

Wekweeti, Northwest Territories, Canada
METAR CYWE 100600Z AUTO 18006KT 9SM SCT230 SCT250 M07/M07 A2932 RMK ICG PAST HR SLP965
Observed Flight Rules
Dec-10 @ 06:00 UTC (an hour ago) Visual Flight Rules
Wind Visibility Clouds
180° at 6 knots 9 miles
  • Scattered at 23,000' AGL
  • Scattered at 25,000' AGL
Temperatures Readings
Current -7°C / 19°F
Dewpoint -7°C / 19°F
Humidity 100%
Altimeter 29.32" Hg
Pressure 996.5 hPa
Elevation 371
METAR CYWE 100600Z AUTO 18006KT 9SM SCT230 SCT250 M07/M07 A2932 RMK ICG PAST HR SLP965
Observed Flight Rules
Dec-10 @ 06:00 UTC
(an hour ago)
VFR
Wind Visibility
180° at 6 knots 9 miles
Clouds
  • Scattered at 23,000' AGL
  • Scattered at 25,000' AGL
Temperature Dewpoint
-7°C / 19°F -7°C / 19°F
Humidity Altimeter Pressure
100% 29.32" Hg 996.5 hPa